sensor_id;sensor_type;location;lat;lon;timestamp;pressure;altitude;pressure_sealevel;temperature;humidity
58686;BME280;44465;53.206;-6.106;2023-12-20T00:02:14;102061.75;;;20.90;51.09
58686;BME280;44465;53.206;-6.106;2023-12-20T00:04:39;102065.91;;;20.99;51.07
58686;BME280;44465;53.206;-6.106;2023-12-20T00:07:05;102055.28;;;20.96;50.76
58686;BME280;44465;53.206;-6.106;2023-12-20T00:09:30;102058.91;;;20.95;50.88
58686;BME280;44465;53.206;-6.106;2023-12-20T00:11:56;102075.75;;;20.98;50.73
58686;BME280;44465;53.206;-6.106;2023-12-20T00:14:22;102059.03;;;20.91;51.04
58686;BME280;44465;53.206;-6.106;2023-12-20T00:16:47;102080.34;;;20.95;51.15
58686;BME280;44465;53.206;-6.106;2023-12-20T00:19:13;102060.88;;;20.89;51.00
58686;BME280;44465;53.206;-6.106;2023-12-20T00:21:38;102072.47;;;20.90;51.07
58686;BME280;44465;53.206;-6.106;2023-12-20T00:24:04;102082.03;;;20.97;51.02
58686;BME280;44465;53.206;-6.106;2023-12-20T00:26:29;102059.09;;;20.90;51.13
58686;BME280;44465;53.206;-6.106;2023-12-20T00:28:55;102059.03;;;20.91;50.91
58686;BME280;44465;53.206;-6.106;2023-12-20T00:31:20;102056.34;;;20.91;51.10
58686;BME280;44465;53.206;-6.106;2023-12-20T00:33:46;102065.03;;;20.98;50.93
58686;BME280;44465;53.206;-6.106;2023-12-20T00:36:12;102059.88;;;20.92;50.76
58686;BME280;44465;53.206;-6.106;2023-12-20T00:38:37;102051.81;;;20.94;50.94
58686;BME280;44465;53.206;-6.106;2023-12-20T00:41:03;102049.16;;;20.92;50.84
58686;BME280;44465;53.206;-6.106;2023-12-20T00:43:28;102054.53;;;20.92;50.78
58686;BME280;44465;53.206;-6.106;2023-12-20T00:45:54;102067.72;;;20.98;51.11
58686;BME280;44465;53.206;-6.106;2023-12-20T00:48:20;102042.84;;;20.95;50.97
58686;BME280;44465;53.206;-6.106;2023-12-20T00:50:46;102047.41;;;20.91;50.76
58686;BME280;44465;53.206;-6.106;2023-12-20T00:53:11;102039.34;;;20.92;50.96
58686;BME280;44465;53.206;-6.106;2023-12-20T00:55:37;102054.50;;;20.94;50.81
58686;BME280;44465;53.206;-6.106;2023-12-20T00:58:03;102065.13;;;20.95;50.89
58686;BME280;44465;53.206;-6.106;2023-12-20T01:00:28;102049.13;;;20.94;50.96
58686;BME280;44465;53.206;-6.106;2023-12-20T01:02:53;102028.91;;;20.85;51.00
58686;BME280;44465;53.206;-6.106;2023-12-20T01:05:19;102031.34;;;20.91;50.38
58686;BME280;44465;53.206;-6.106;2023-12-20T01:07:44;102039.28;;;20.94;50.92
58686;BME280;44465;53.206;-6.106;2023-12-20T01:10:10;102016.94;;;20.95;50.88
58686;BME280;44465;53.206;-6.106;2023-12-20T01:12:36;102025.13;;;20.90;50.83
58686;BME280;44465;53.206;-6.106;2023-12-20T01:15:01;102025.03;;;20.94;50.91
58686;BME280;44465;53.206;-6.106;2023-12-20T01:17:27;101998.44;;;20.89;50.77
58686;BME280;44465;53.206;-6.106;2023-12-20T01:19:52;102015.41;;;20.88;50.81
58686;BME280;44465;53.206;-6.106;2023-12-20T01:22:18;101998.47;;;20.87;50.81
58686;BME280;44465;53.206;-6.106;2023-12-20T01:24:44;102010.88;;;20.90;50.90
58686;BME280;44465;53.206;-6.106;2023-12-20T01:27:09;102006.47;;;20.89;50.76
58686;BME280;44465;53.206;-6.106;2023-12-20T01:29:35;101994.09;;;20.85;50.88
58686;BME280;44465;53.206;-6.106;2023-12-20T01:32:00;102002.84;;;20.90;50.58
58686;BME280;44465;53.206;-6.106;2023-12-20T01:34:26;101990.50;;;20.86;50.59
58686;BME280;44465;53.206;-6.106;2023-12-20T01:36:51;102008.25;;;20.88;50.87
58686;BME280;44465;53.206;-6.106;2023-12-20T01:39:17;102009.94;;;20.91;50.72
58686;BME280;44465;53.206;-6.106;2023-12-20T01:41:43;102015.28;;;20.91;50.71
58686;BME280;44465;53.206;-6.106;2023-12-20T01:44:08;102009.00;;;20.92;50.77
58686;BME280;44465;53.206;-6.106;2023-12-20T01:46:34;102005.56;;;20.88;50.63
58686;BME280;44465;53.206;-6.106;2023-12-20T01:49:00;102024.28;;;20.90;50.59
58686;BME280;44465;53.206;-6.106;2023-12-20T01:51:26;102009.06;;;20.90;50.58
58686;BME280;44465;53.206;-6.106;2023-12-20T01:53:54;102010.88;;;20.90;50.72
58686;BME280;44465;53.206;-6.106;2023-12-20T01:56:20;102014.66;;;20.84;50.93
58686;BME280;44465;53.206;-6.106;2023-12-20T01:58:46;102016.28;;;20.88;50.76
58686;BME280;44465;53.206;-6.106;2023-12-20T02:01:13;102003.78;;;20.89;50.67
58686;BME280;44465;53.206;-6.106;2023-12-20T02:03:43;102006.63;;;20.84;50.68
58686;BME280;44465;53.206;-6.106;2023-12-20T02:06:09;102016.34;;;20.87;50.79
58686;BME280;44465;53.206;-6.106;2023-12-20T02:08:35;101992.25;;;20.87;50.63
58686;BME280;44465;53.206;-6.106;2023-12-20T02:11:01;101999.56;;;20.82;50.61
58686;BME280;44465;53.206;-6.106;2023-12-20T02:13:27;101997.59;;;20.87;50.39
58686;BME280;44465;53.206;-6.106;2023-12-20T02:15:53;102001.19;;;20.86;50.55
58686;BME280;44465;53.206;-6.106;2023-12-20T02:18:19;102001.19;;;20.86;50.61
58686;BME280;44465;53.206;-6.106;2023-12-20T02:20:45;102010.06;;;20.88;50.54
58686;BME280;44465;53.206;-6.106;2023-12-20T02:23:10;102006.66;;;20.83;50.56
58686;BME280;44465;53.206;-6.106;2023-12-20T02:25:35;102001.19;;;20.86;50.29
58686;BME280;44465;53.206;-6.106;2023-12-20T02:28:02;101978.03;;;20.85;50.46
58686;BME280;44465;53.206;-6.106;2023-12-20T02:30:27;101985.25;;;20.83;50.54
58686;BME280;44465;53.206;-6.106;2023-12-20T02:32:53;101991.34;;;20.86;50.53
58686;BME280;44465;53.206;-6.106;2023-12-20T02:35:19;102007.38;;;20.88;50.60
58686;BME280;44465;53.206;-6.106;2023-12-20T02:37:44;101990.59;;;20.83;50.44
58686;BME280;44465;53.206;-6.106;2023-12-20T02:40:10;102016.44;;;20.84;50.55
58686;BME280;44465;53.206;-6.106;2023-12-20T02:42:35;102027.06;;;20.87;50.59
58686;BME280;44465;53.206;-6.106;2023-12-20T02:45:01;102020.88;;;20.85;50.45
58686;BME280;44465;53.206;-6.106;2023-12-20T02:47:26;102025.28;;;20.86;50.33
58686;BME280;44465;53.206;-6.106;2023-12-20T02:49:52;102011.09;;;20.84;50.45
58686;BME280;44465;53.206;-6.106;2023-12-20T02:52:18;102007.41;;;20.86;50.53
58686;BME280;44465;53.206;-6.106;2023-12-20T02:54:43;102001.31;;;20.83;50.43
58686;BME280;44465;53.206;-6.106;2023-12-20T02:57:09;102010.06;;;20.88;50.46
58686;BME280;44465;53.206;-6.106;2023-12-20T02:59:34;102024.38;;;20.87;50.50
58686;BME280;44465;53.206;-6.106;2023-12-20T03:02:00;102023.47;;;20.86;50.26
58686;BME280;44465;53.206;-6.106;2023-12-20T03:04:25;102018.13;;;20.86;50.45
58686;BME280;44465;53.206;-6.106;2023-12-20T03:06:50;102016.50;;;20.82;50.60
58686;BME280;44465;53.206;-6.106;2023-12-20T03:09:16;102027.22;;;20.82;50.29
58686;BME280;44465;53.206;-6.106;2023-12-20T03:11:41;102034.25;;;20.85;50.39
58686;BME280;44465;53.206;-6.106;2023-12-20T03:14:07;102012.25;;;20.76;50.25
58686;BME280;44465;53.206;-6.106;2023-12-20T03:16:32;102030.81;;;20.81;50.34
58686;BME280;44465;53.206;-6.106;2023-12-20T03:18:58;102021.09;;;20.79;50.28
58686;BME280;44465;53.206;-6.106;2023-12-20T03:21:24;102000.63;;;20.76;50.55
58686;BME280;44465;53.206;-6.106;2023-12-20T03:23:49;101995.94;;;20.83;50.07
58686;BME280;44465;53.206;-6.106;2023-12-20T03:26:14;101996.19;;;20.76;50.25
58686;BME280;44465;53.206;-6.106;2023-12-20T03:28:40;101990.59;;;20.83;50.24
58686;BME280;44465;53.206;-6.106;2023-12-20T03:31:05;101987.09;;;20.81;50.38
58686;BME280;44465;53.206;-6.106;2023-12-20T03:33:31;101990.66;;;20.81;50.36
58686;BME280;44465;53.206;-6.106;2023-12-20T03:35:56;101980.13;;;20.76;50.23
58686;BME280;44465;53.206;-6.106;2023-12-20T03:38:22;102006.66;;;20.83;50.28
58686;BME280;44465;53.206;-6.106;2023-12-20T03:40:49;101985.31;;;20.81;50.36
58686;BME280;44465;53.206;-6.106;2023-12-20T03:43:15;101978.44;;;20.72;50.15
58686;BME280;44465;53.206;-6.106;2023-12-20T03:45:42;101978.25;;;20.79;50.40
58686;BME280;44465;53.206;-6.106;2023-12-20T03:48:07;101972.91;;;20.79;50.58
58686;BME280;44465;53.206;-6.106;2023-12-20T03:50:32;101974.78;;;20.75;50.25
58686;BME280;44465;53.206;-6.106;2023-12-20T03:52:58;101983.63;;;20.79;50.24
58686;BME280;44465;53.206;-6.106;2023-12-20T03:55:23;101967.59;;;20.77;50.19
58686;BME280;44465;53.206;-6.106;2023-12-20T03:57:49;101970.34;;;20.75;50.31
58686;BME280;44465;53.206;-6.106;2023-12-20T04:00:14;101975.69;;;20.75;50.38
58686;BME280;44465;53.206;-6.106;2023-12-20T04:02:41;101977.44;;;20.76;50.21
58686;BME280;44465;53.206;-6.106;2023-12-20T04:05:08;101983.72;;;20.75;50.26
58686;BME280;44465;53.206;-6.106;2023-12-20T04:07:34;101969.41;;;20.76;50.30
58686;BME280;44465;53.206;-6.106;2023-12-20T04:10:00;101971.25;;;20.74;50.32
58686;BME280;44465;53.206;-6.106;2023-12-20T04:12:27;101972.09;;;20.76;50.30
58686;BME280;44465;53.206;-6.106;2023-12-20T04:14:52;101969.47;;;20.73;50.26
58686;BME280;44465;53.206;-6.106;2023-12-20T04:17:18;101973.00;;;20.75;50.01
58686;BME280;44465;53.206;-6.106;2023-12-20T04:19:43;101983.72;;;20.75;50.18
58686;BME280;44465;53.206;-6.106;2023-12-20T04:22:09;101997.34;;;20.68;50.00
58686;BME280;44465;53.206;-6.106;2023-12-20T04:24:34;102014.16;;;20.71;50.15
58686;BME280;44465;53.206;-6.106;2023-12-20T04:27:00;102016.03;;;20.69;50.23
58686;BME280;44465;53.206;-6.106;2023-12-20T04:29:26;102014.09;;;20.74;50.32
58686;BME280;44465;53.206;-6.106;2023-12-20T04:31:51;102012.47;;;20.69;50.05
58686;BME280;44465;53.206;-6.106;2023-12-20T04:34:17;102027.41;;;20.76;50.30
58686;BME280;44465;53.206;-6.106;2023-12-20T04:36:43;102019.38;;;20.76;50.14
58686;BME280;44465;53.206;-6.106;2023-12-20T04:39:08;102018.59;;;20.74;50.28
58686;BME280;44465;53.206;-6.106;2023-12-20T04:41:34;102013.22;;;20.72;50.13
58686;BME280;44465;53.206;-6.106;2023-12-20T04:43:59;101992.75;;;20.71;50.46
58686;BME280;44465;53.206;-6.106;2023-12-20T04:46:26;101980.28;;;20.70;50.01
58686;BME280;44465;53.206;-6.106;2023-12-20T04:48:51;101988.19;;;20.75;50.21
58686;BME280;44465;53.206;-6.106;2023-12-20T04:51:17;101988.28;;;20.72;49.97
58686;BME280;44465;53.206;-6.106;2023-12-20T04:53:42;101991.94;;;20.69;50.32
58686;BME280;44465;53.206;-6.106;2023-12-20T04:56:07;102002.66;;;20.69;50.26
58686;BME280;44465;53.206;-6.106;2023-12-20T04:58:33;101989.38;;;20.66;50.17
58686;BME280;44465;53.206;-6.106;2023-12-20T05:00:58;102005.19;;;20.72;50.09
58686;BME280;44465;53.206;-6.106;2023-12-20T05:03:24;101981.34;;;20.66;50.10
58686;BME280;44465;53.206;-6.106;2023-12-20T05:05:49;101998.09;;;20.71;50.10
58686;BME280;44465;53.206;-6.106;2023-12-20T05:08:15;102004.50;;;20.67;50.06
58686;BME280;44465;53.206;-6.106;2023-12-20T05:10:40;102008.81;;;20.71;50.53
58686;BME280;44465;53.206;-6.106;2023-12-20T05:13:06;101971.78;;;20.59;50.31
58686;BME280;44465;53.206;-6.106;2023-12-20T05:15:31;102017.75;;;20.70;50.29
58686;BME280;44465;53.206;-6.106;2023-12-20T05:17:57;102008.03;;;20.68;50.33
58686;BME280;44465;53.206;-6.106;2023-12-20T05:20:22;101996.56;;;20.64;50.11
58686;BME280;44465;53.206;-6.106;2023-12-20T05:22:48;102003.56;;;20.68;50.21
58686;BME280;44465;53.206;-6.106;2023-12-20T05:25:14;102013.28;;;20.71;50.00
58686;BME280;44465;53.206;-6.106;2023-12-20T05:27:39;101997.41;;;20.66;50.36
58686;BME280;44465;53.206;-6.106;2023-12-20T05:30:05;101989.28;;;20.69;50.21
58686;BME280;44465;53.206;-6.106;2023-12-20T05:32:31;101978.75;;;20.63;50.08
58686;BME280;44465;53.206;-6.106;2023-12-20T05:34:57;101987.50;;;20.68;50.17
58686;BME280;44465;53.206;-6.106;2023-12-20T05:37:22;102005.53;;;20.63;50.12
58686;BME280;44465;53.206;-6.106;2023-12-20T05:39:47;102005.38;;;20.68;50.35
58686;BME280;44465;53.206;-6.106;2023-12-20T05:42:13;101994.72;;;20.66;50.13
58686;BME280;44465;53.206;-6.106;2023-12-20T05:44:38;101994.66;;;20.68;50.11
58686;BME280;44465;53.206;-6.106;2023-12-20T05:47:04;101995.47;;;20.70;50.15
58686;BME280;44465;53.206;-6.106;2023-12-20T05:49:29;101988.38;;;20.69;50.16
58686;BME280;44465;53.206;-6.106;2023-12-20T05:51:55;101974.22;;;20.65;50.18
58686;BME280;44465;53.206;-6.106;2023-12-20T05:54:20;101986.53;;;20.71;50.30
58686;BME280;44465;53.206;-6.106;2023-12-20T05:56:46;101986.53;;;20.71;50.14
58686;BME280;44465;53.206;-6.106;2023-12-20T05:59:12;101963.44;;;20.68;50.22
58686;BME280;44465;53.206;-6.106;2023-12-20T06:01:37;101960.75;;;20.68;50.17
58686;BME280;44465;53.206;-6.106;2023-12-20T06:04:03;101966.88;;;20.72;50.10
58686;BME280;44465;53.206;-6.106;2023-12-20T06:06:29;101951.06;;;20.64;50.17
58686;BME280;44465;53.206;-6.106;2023-12-20T06:08:55;101950.81;;;20.72;50.01
58686;BME280;44465;53.206;-6.106;2023-12-20T06:11:21;101941.94;;;20.70;50.24
58686;BME280;44465;53.206;-6.106;2023-12-20T06:13:46;101941.03;;;20.71;50.03
58686;BME280;44465;53.206;-6.106;2023-12-20T06:16:12;101934.94;;;20.66;50.12
58686;BME280;44465;53.206;-6.106;2023-12-20T06:18:38;101948.28;;;20.67;50.26
58686;BME280;44465;53.206;-6.106;2023-12-20T06:21:03;101939.38;;;20.67;50.19
58686;BME280;44465;53.206;-6.106;2023-12-20T06:23:29;101948.13;;;20.72;50.07
58686;BME280;44465;53.206;-6.106;2023-12-20T06:25:55;101953.47;;;20.72;50.17
58686;BME280;44465;53.206;-6.106;2023-12-20T06:28:20;101955.41;;;20.68;49.98
58686;BME280;44465;53.206;-6.106;2023-12-20T06:30:46;101944.69;;;20.68;50.02
58686;BME280;44465;53.206;-6.106;2023-12-20T06:33:14;101937.44;;;20.70;50.20
58686;BME280;44465;53.206;-6.106;2023-12-20T06:35:40;101930.53;;;20.65;50.20
58686;BME280;44465;53.206;-6.106;2023-12-20T06:38:05;101948.06;;;20.73;50.08
58686;BME280;44465;53.206;-6.106;2023-12-20T06:40:31;101916.28;;;20.64;50.14
58686;BME280;44465;53.206;-6.106;2023-12-20T06:42:56;101933.84;;;20.71;49.86
58686;BME280;44465;53.206;-6.106;2023-12-20T06:45:21;101932.22;;;20.67;50.31
58686;BME280;44465;53.206;-6.106;2023-12-20T06:47:47;101929.56;;;20.67;50.10
58686;BME280;44465;53.206;-6.106;2023-12-20T06:50:12;101933.00;;;20.71;49.88
58686;BME280;44465;53.206;-6.106;2023-12-20T06:52:38;101925.94;;;20.68;50.10
58686;BME280;44465;53.206;-6.106;2023-12-20T06:55:03;101915.34;;;20.65;50.33
58686;BME280;44465;53.206;-6.106;2023-12-20T06:57:29;101925.03;;;20.69;50.10
58686;BME280;44465;53.206;-6.106;2023-12-20T06:59:55;101943.69;;;20.71;50.12
58686;BME280;44465;53.206;-6.106;2023-12-20T07:02:21;101949.16;;;20.68;50.09
58686;BME280;44465;53.206;-6.106;2023-12-20T07:04:47;101944.88;;;20.62;50.01
58686;BME280;44465;53.206;-6.106;2023-12-20T07:07:13;101964.13;;;20.73;50.07
58686;BME280;44465;53.206;-6.106;2023-12-20T07:09:38;101939.44;;;20.65;49.92
58686;BME280;44465;53.206;-6.106;2023-12-20T07:12:04;101955.41;;;20.68;50.03
58686;BME280;44465;53.206;-6.106;2023-12-20T07:14:30;101948.31;;;20.66;50.18
58686;BME280;44465;53.206;-6.106;2023-12-20T07:16:55;101906.28;;;20.69;50.01
58686;BME280;44465;53.206;-6.106;2023-12-20T07:19:20;101945.38;;;20.73;49.99
58686;BME280;44465;53.206;-6.106;2023-12-20T07:21:46;101946.53;;;20.66;50.33
58686;BME280;44465;53.206;-6.106;2023-12-20T07:24:11;101951.66;;;20.72;50.15
58686;BME280;44465;53.206;-6.106;2023-12-20T07:26:37;101955.50;;;20.65;50.00
58686;BME280;44465;53.206;-6.106;2023-12-20T07:29:03;101965.19;;;20.69;49.97
58686;BME280;44465;53.206;-6.106;2023-12-20T07:31:29;101951.91;;;20.66;50.16
58686;BME280;44465;53.206;-6.106;2023-12-20T07:33:55;101956.25;;;20.69;50.24
58686;BME280;44465;53.206;-6.106;2023-12-20T07:36:20;101949.13;;;20.69;50.41
58686;BME280;44465;53.206;-6.106;2023-12-20T07:38:47;101928.63;;;20.68;49.98
58686;BME280;44465;53.206;-6.106;2023-12-20T07:41:12;101915.34;;;20.65;50.10
58686;BME280;44465;53.206;-6.106;2023-12-20T07:43:38;101912.56;;;20.68;50.38
58686;BME280;44465;53.206;-6.106;2023-12-20T07:46:10;101927.56;;;20.72;50.02
58686;BME280;44465;53.206;-6.106;2023-12-20T07:48:35;101922.28;;;20.71;49.97
58686;BME280;44465;53.206;-6.106;2023-12-20T07:51:02;101894.75;;;20.67;50.32
58686;BME280;44465;53.206;-6.106;2023-12-20T07:53:27;101887.56;;;20.69;50.04
58686;BME280;44465;53.206;-6.106;2023-12-20T07:55:53;101889.44;;;20.66;50.03
58686;BME280;44465;53.206;-6.106;2023-12-20T07:58:19;101885.81;;;20.68;50.03
58686;BME280;44465;53.206;-6.106;2023-12-20T08:00:44;101882.31;;;20.66;50.32
58686;BME280;44465;53.206;-6.106;2023-12-20T08:03:09;101882.19;;;20.69;49.83
58686;BME280;44465;53.206;-6.106;2023-12-20T08:05:35;101868.84;;;20.68;49.91
58686;BME280;44465;53.206;-6.106;2023-12-20T08:08:01;101869.75;;;20.68;50.03
58686;BME280;44465;53.206;-6.106;2023-12-20T08:10:26;101867.25;;;20.64;50.09
58686;BME280;44465;53.206;-6.106;2023-12-20T08:12:54;101851.88;;;20.69;50.07
58686;BME280;44465;53.206;-6.106;2023-12-20T08:15:20;101858.13;;;20.69;49.99
58686;BME280;44465;53.206;-6.106;2023-12-20T08:17:45;101869.59;;;20.71;49.82
58686;BME280;44465;53.206;-6.106;2023-12-20T08:20:11;101866.25;;;20.66;49.98
58686;BME280;44465;53.206;-6.106;2023-12-20T08:22:36;101872.44;;;20.68;50.15
58686;BME280;44465;53.206;-6.106;2023-12-20T08:25:02;101837.84;;;20.62;50.10
58686;BME280;44465;53.206;-6.106;2023-12-20T08:27:27;101839.53;;;20.65;50.01
58686;BME280;44465;53.206;-6.106;2023-12-20T08:29:53;101830.63;;;20.64;49.95
58686;BME280;44465;53.206;-6.106;2023-12-20T08:32:18;101843.84;;;20.69;49.89
58686;BME280;44465;53.206;-6.106;2023-12-20T08:34:44;101841.16;;;20.69;50.03
58686;BME280;44465;53.206;-6.106;2023-12-20T08:37:09;101849.13;;;20.70;49.76
58686;BME280;44465;53.206;-6.106;2023-12-20T08:39:35;101847.28;;;20.72;50.06
58686;BME280;44465;53.206;-6.106;2023-12-20T08:42:00;101850.88;;;20.71;50.09
58686;BME280;44465;53.206;-6.106;2023-12-20T08:44:25;101858.91;;;20.71;50.02
58686;BME280;44465;53.206;-6.106;2023-12-20T08:46:51;101826.09;;;20.66;50.14
58686;BME280;44465;53.206;-6.106;2023-12-20T08:49:16;101862.66;;;20.67;49.80
58686;BME280;44465;53.206;-6.106;2023-12-20T08:51:42;101844.84;;;20.66;49.94
58686;BME280;44465;53.206;-6.106;2023-12-20T08:54:08;101846.78;;;20.61;49.90
58686;BME280;44465;53.206;-6.106;2023-12-20T08:56:34;101846.44;;;20.70;49.88
58686;BME280;44465;53.206;-6.106;2023-12-20T08:58:59;101851.81;;;20.70;50.03
58686;BME280;44465;53.206;-6.106;2023-12-20T09:01:25;101827.28;;;20.59;49.62
58686;BME280;44465;53.206;-6.106;2023-12-20T09:03:50;101828.81;;;20.65;49.94
58686;BME280;44465;53.206;-6.106;2023-12-20T09:06:15;101842.06;;;20.69;50.02
58686;BME280;44465;53.206;-6.106;2023-12-20T09:08:41;101842.09;;;20.68;49.69
58686;BME280;44465;53.206;-6.106;2023-12-20T09:11:06;101824.09;;;20.71;50.09
58686;BME280;44465;53.206;-6.106;2023-12-20T09:13:32;101835.75;;;20.70;50.07
58686;BME280;44465;53.206;-6.106;2023-12-20T09:15:57;101824.19;;;20.70;50.05
58686;BME280;44465;53.206;-6.106;2023-12-20T09:18:23;101805.53;;;20.67;50.05
58686;BME280;44465;53.206;-6.106;2023-12-20T09:20:49;101817.81;;;20.72;50.02
58686;BME280;44465;53.206;-6.106;2023-12-20T09:23:15;101812.63;;;20.69;50.15
58686;BME280;44465;53.206;-6.106;2023-12-20T09:25:40;101791.31;;;20.66;50.17
58686;BME280;44465;53.206;-6.106;2023-12-20T09:28:06;101807.25;;;20.69;50.22
58686;BME280;44465;53.206;-6.106;2023-12-20T09:30:31;101780.50;;;20.69;50.18
58686;BME280;44465;53.206;-6.106;2023-12-20T09:32:57;101785.94;;;20.66;49.91
58686;BME280;44465;53.206;-6.106;2023-12-20T09:35:23;101750.22;;;20.67;50.02
58686;BME280;44465;53.206;-6.106;2023-12-20T09:37:49;101765.47;;;20.65;50.16
58686;BME280;44465;53.206;-6.106;2023-12-20T09:40:18;101790.25;;;20.70;49.71
58686;BME280;44465;53.206;-6.106;2023-12-20T09:42:57;101770.75;;;20.67;49.92
58686;BME280;44465;53.206;-6.106;2023-12-20T09:45:23;101768.16;;;20.65;50.03
58686;BME280;44465;53.206;-6.106;2023-12-20T09:47:52;101766.16;;;20.70;49.88
58686;BME280;44465;53.206;-6.106;2023-12-20T09:50:19;101784.31;;;20.62;49.51
58686;BME280;44465;53.206;-6.106;2023-12-20T09:52:49;101782.34;;;20.67;49.37
58686;BME280;44465;53.206;-6.106;2023-12-20T09:55:17;101752.84;;;20.69;49.72
58686;BME280;44465;53.206;-6.106;2023-12-20T09:57:43;101741.28;;;20.68;49.50
58686;BME280;44465;53.206;-6.106;2023-12-20T10:00:10;101759.94;;;20.70;49.56
58686;BME280;44465;53.206;-6.106;2023-12-20T10:02:50;101753.94;;;20.63;49.59
58686;BME280;44465;53.206;-6.106;2023-12-20T10:05:24;101741.50;;;20.62;49.69
58686;BME280;44465;53.206;-6.106;2023-12-20T10:07:51;101766.28;;;20.67;49.71
58686;BME280;44465;53.206;-6.106;2023-12-20T10:10:17;101766.41;;;20.64;49.84
58686;BME280;44465;53.206;-6.106;2023-12-20T10:13:01;101752.09;;;20.65;49.84
58686;BME280;44465;53.206;-6.106;2023-12-20T10:15:27;101715.34;;;20.46;49.22
58686;BME280;44465;53.206;-6.106;2023-12-20T10:17:52;101742.75;;;20.53;48.66
58686;BME280;44465;53.206;-6.106;2023-12-20T10:20:17;101734.72;;;20.53;49.03
58686;BME280;44465;53.206;-6.106;2023-12-20T10:22:43;101727.53;;;20.54;49.33
58686;BME280;44465;53.206;-6.106;2023-12-20T10:25:08;101738.25;;;20.54;49.30
58686;BME280;44465;53.206;-6.106;2023-12-20T10:27:34;101723.84;;;20.58;49.60
58686;BME280;44465;53.206;-6.106;2023-12-20T10:29:59;101733.75;;;20.54;49.58
58686;BME280;44465;53.206;-6.106;2023-12-20T10:32:26;101726.50;;;20.58;49.78
58686;BME280;44465;53.206;-6.106;2023-12-20T10:34:53;101765.53;;;20.64;49.59
58686;BME280;44465;53.206;-6.106;2023-12-20T10:37:19;101764.91;;;20.57;49.82
58686;BME280;44465;53.206;-6.106;2023-12-20T10:39:50;101767.31;;;20.63;49.87
58686;BME280;44465;53.206;-6.106;2023-12-20T10:42:19;101752.16;;;20.64;50.32
58686;BME280;44465;53.206;-6.106;2023-12-20T10:44:46;101712.06;;;20.62;49.92
58686;BME280;44465;53.206;-6.106;2023-12-20T10:47:13;101726.44;;;20.59;49.90
58686;BME280;44465;53.206;-6.106;2023-12-20T10:49:39;101745.91;;;20.63;49.95
58686;BME280;44465;53.206;-6.106;2023-12-20T10:52:05;101761.78;;;20.68;49.99
58686;BME280;44465;53.206;-6.106;2023-12-20T10:54:31;101743.50;;;20.57;49.86
58686;BME280;44465;53.206;-6.106;2023-12-20T10:56:57;101736.88;;;20.66;50.31
58686;BME280;44465;53.206;-6.106;2023-12-20T10:59:24;101757.25;;;20.70;50.05
58686;BME280;44465;53.206;-6.106;2023-12-20T11:01:50;101741.31;;;20.67;49.91
58686;BME280;44465;53.206;-6.106;2023-12-20T11:04:23;101743.03;;;20.69;50.08
58686;BME280;44465;53.206;-6.106;2023-12-20T11:06:54;101739.53;;;20.67;49.88
58686;BME280;44465;53.206;-6.106;2023-12-20T11:09:28;101723.84;;;20.58;49.83
58686;BME280;44465;53.206;-6.106;2023-12-20T11:14:46;101730.56;;;20.68;50.10
58686;BME280;44465;53.206;-6.106;2023-12-20T11:17:12;101713.69;;;20.66;50.01
58686;BME280;44465;53.206;-6.106;2023-12-20T11:22:29;101710.19;;;20.64;50.13
58686;BME280;44465;53.206;-6.106;2023-12-20T11:25:19;101714.50;;;20.68;49.92
58686;BME280;44465;53.206;-6.106;2023-12-20T11:27:44;101696.81;;;20.64;50.11
58686;BME280;44465;53.206;-6.106;2023-12-20T11:31:01;101680.88;;;20.61;50.03
58686;BME280;44465;53.206;-6.106;2023-12-20T11:33:30;101681.88;;;20.58;50.16
58686;BME280;44465;53.206;-6.106;2023-12-20T11:35:56;101685.00;;;20.70;50.05
58686;BME280;44465;53.206;-6.106;2023-12-20T11:38:23;101694.88;;;20.68;49.98
58686;BME280;44465;53.206;-6.106;2023-12-20T11:40:49;101672.72;;;20.64;49.92
58686;BME280;44465;53.206;-6.106;2023-12-20T11:43:38;101672.63;;;20.67;49.86
58686;BME280;44465;53.206;-6.106;2023-12-20T11:46:08;101678.91;;;20.66;49.70
58686;BME280;44465;53.206;-6.106;2023-12-20T11:48:38;101681.47;;;20.69;49.88
58686;BME280;44465;53.206;-6.106;2023-12-20T11:51:11;101670.06;;;20.64;49.98
58686;BME280;44465;53.206;-6.106;2023-12-20T11:53:37;101680.56;;;20.69;49.91
58686;BME280;44465;53.206;-6.106;2023-12-20T11:56:04;101673.44;;;20.69;49.90
58686;BME280;44465;53.206;-6.106;2023-12-20T11:58:29;101670.69;;;20.71;49.66
58686;BME280;44465;53.206;-6.106;2023-12-20T12:00:56;101694.03;;;20.67;49.95
58686;BME280;44465;53.206;-6.106;2023-12-20T12:03:21;101680.69;;;20.66;49.72
58686;BME280;44465;53.206;-6.106;2023-12-20T12:05:49;101675.28;;;20.67;49.84
58686;BME280;44465;53.206;-6.106;2023-12-20T12:08:15;101671.69;;;20.68;49.95
58686;BME280;44465;53.206;-6.106;2023-12-20T12:10:41;101672.47;;;20.70;49.73
58686;BME280;44465;53.206;-6.106;2023-12-20T12:13:06;101636.44;;;20.57;49.76
58686;BME280;44465;53.206;-6.106;2023-12-20T12:15:32;101655.63;;;20.68;49.78
58686;BME280;44465;53.206;-6.106;2023-12-20T12:17:57;101622.00;;;20.61;49.63
58686;BME280;44465;53.206;-6.106;2023-12-20T12:20:24;101627.78;;;20.74;49.78
58686;BME280;44465;53.206;-6.106;2023-12-20T12:23:22;101650.13;;;20.71;49.89
58686;BME280;44465;53.206;-6.106;2023-12-20T12:25:48;101627.97;;;20.68;49.81
58686;BME280;44465;53.206;-6.106;2023-12-20T12:28:14;101611.19;;;20.64;49.68
58686;BME280;44465;53.206;-6.106;2023-12-20T12:30:39;101621.50;;;20.73;50.04
58686;BME280;44465;53.206;-6.106;2023-12-20T12:33:04;101615.28;;;20.73;50.18
58686;BME280;44465;53.206;-6.106;2023-12-20T12:35:30;101624.91;;;20.79;50.12
58686;BME280;44465;53.206;-6.106;2023-12-20T12:37:58;101623.00;;;20.81;50.39
58686;BME280;44465;53.206;-6.106;2023-12-20T12:40:25;101611.53;;;20.79;50.46
58686;BME280;44465;53.206;-6.106;2023-12-20T12:42:51;101592.63;;;20.82;50.53